sensor_id;sensor_type;location;lat;lon;timestamp;temperature;humidity
33811;DHT22;20119;48.334;16.206;2023-02-01T00:21:37;4.30;99.90
33811;DHT22;20119;48.334;16.206;2023-02-01T00:31:51;4.30;99.90
33811;DHT22;20119;48.334;16.206;2023-02-01T00:34:18;4.30;99.90
33811;DHT22;20119;48.334;16.206;2023-02-01T00:39:22;4.30;99.90
33811;DHT22;20119;48.334;16.206;2023-02-01T00:44:24;4.30;99.90
33811;DHT22;20119;48.334;16.206;2023-02-01T00:49:28;4.30;99.90
33811;DHT22;20119;48.334;16.206;2023-02-01T00:51:55;4.30;99.90
33811;DHT22;20119;48.334;16.206;2023-02-01T00:54:23;4.30;99.90
33811;DHT22;20119;48.334;16.206;2023-02-01T00:59:26;4.30;99.90
33811;DHT22;20119;48.334;16.206;2023-02-01T01:01:53;4.20;99.90
33811;DHT22;20119;48.334;16.206;2023-02-01T01:04:19;4.20;99.90
33811;DHT22;20119;48.334;16.206;2023-02-01T01:12:00;4.30;99.90
33811;DHT22;20119;48.334;16.206;2023-02-01T01:19:38;4.20;99.90
33811;DHT22;20119;48.334;16.206;2023-02-01T01:34:56;4.00;99.90
33811;DHT22;20119;48.334;16.206;2023-02-01T01:45:20;3.90;99.90
33811;DHT22;20119;48.334;16.206;2023-02-01T01:47:52;3.90;99.90
33811;DHT22;20119;48.334;16.206;2023-02-01T01:50:30;3.90;99.90
33811;DHT22;20119;48.334;16.206;2023-02-01T01:58:13;4.00;99.90
33811;DHT22;20119;48.334;16.206;2023-02-01T02:00:41;4.00;99.90
33811;DHT22;20119;48.334;16.206;2023-02-01T02:03:13;4.00;99.90
33811;DHT22;20119;48.334;16.206;2023-02-01T02:05:43;4.00;99.90
33811;DHT22;20119;48.334;16.206;2023-02-01T02:08:11;4.10;99.90
33811;DHT22;20119;48.334;16.206;2023-02-01T02:13:15;4.10;99.90
33811;DHT22;20119;48.334;16.206;2023-02-01T02:31:37;4.30;99.90
33811;DHT22;20119;48.334;16.206;2023-02-01T02:34:16;4.30;99.90
33811;DHT22;20119;48.334;16.206;2023-02-01T02:36:52;4.30;99.90
33811;DHT22;20119;48.334;16.206;2023-02-01T02:39:25;4.30;99.90
33811;DHT22;20119;48.334;16.206;2023-02-01T02:42:04;4.40;99.90
33811;DHT22;20119;48.334;16.206;2023-02-01T02:44:56;4.40;99.90
33811;DHT22;20119;48.334;16.206;2023-02-01T03:00:40;4.30;99.90
33811;DHT22;20119;48.334;16.206;2023-02-01T03:03:26;4.30;99.90
33811;DHT22;20119;48.334;16.206;2023-02-01T03:06:14;4.30;99.90
33811;DHT22;20119;48.334;16.206;2023-02-01T03:08:42;4.30;99.90
33811;DHT22;20119;48.334;16.206;2023-02-01T03:11:12;4.30;99.90
33811;DHT22;20119;48.334;16.206;2023-02-01T03:13:44;4.20;99.90
33811;DHT22;20119;48.334;16.206;2023-02-01T03:16:16;4.20;99.90
33811;DHT22;20119;48.334;16.206;2023-02-01T03:18:50;4.20;99.90
33811;DHT22;20119;48.334;16.206;2023-02-01T03:21:23;4.30;99.90
33811;DHT22;20119;48.334;16.206;2023-02-01T03:23:52;4.20;99.90
33811;DHT22;20119;48.334;16.206;2023-02-01T03:26:20;4.20;99.90
33811;DHT22;20119;48.334;16.206;2023-02-01T03:28:52;4.20;99.90
33811;DHT22;20119;48.334;16.206;2023-02-01T03:31:23;4.20;99.90
33811;DHT22;20119;48.334;16.206;2023-02-01T03:33:51;4.20;99.90
33811;DHT22;20119;48.334;16.206;2023-02-01T03:36:23;4.10;99.90
33811;DHT22;20119;48.334;16.206;2023-02-01T03:38:57;4.10;99.90
33811;DHT22;20119;48.334;16.206;2023-02-01T03:41:30;4.10;99.90
33811;DHT22;20119;48.334;16.206;2023-02-01T03:44:04;4.00;99.90
33811;DHT22;20119;48.334;16.206;2023-02-01T03:46:37;4.00;99.90
33811;DHT22;20119;48.334;16.206;2023-02-01T03:49:08;4.00;99.90
33811;DHT22;20119;48.334;16.206;2023-02-01T03:51:36;4.10;99.90
33811;DHT22;20119;48.334;16.206;2023-02-01T03:54:07;4.10;99.90
33811;DHT22;20119;48.334;16.206;2023-02-01T03:56:37;4.10;99.90
33811;DHT22;20119;48.334;16.206;2023-02-01T03:59:05;4.10;99.90
33811;DHT22;20119;48.334;16.206;2023-02-01T04:01:33;4.10;99.90
33811;DHT22;20119;48.334;16.206;2023-02-01T04:04:00;4.20;99.90
33811;DHT22;20119;48.334;16.206;2023-02-01T04:06:27;4.30;99.90
33811;DHT22;20119;48.334;16.206;2023-02-01T04:08:54;4.30;99.90
33811;DHT22;20119;48.334;16.206;2023-02-01T04:16:33;4.30;99.90
33811;DHT22;20119;48.334;16.206;2023-02-01T04:19:01;4.30;99.90
33811;DHT22;20119;48.334;16.206;2023-02-01T04:21:28;4.40;99.90
33811;DHT22;20119;48.334;16.206;2023-02-01T04:23:57;4.30;99.90
33811;DHT22;20119;48.334;16.206;2023-02-01T04:28:54;4.40;99.90
33811;DHT22;20119;48.334;16.206;2023-02-01T04:31:21;4.50;99.90
33811;DHT22;20119;48.334;16.206;2023-02-01T04:36:27;4.50;99.90
33811;DHT22;20119;48.334;16.206;2023-02-01T04:38:54;4.50;99.90
33811;DHT22;20119;48.334;16.206;2023-02-01T04:41:21;4.60;99.90
33811;DHT22;20119;48.334;16.206;2023-02-01T04:43:49;4.50;99.90
33811;DHT22;20119;48.334;16.206;2023-02-01T04:54:06;4.40;99.90
33811;DHT22;20119;48.334;16.206;2023-02-01T04:56:33;4.50;99.90
33811;DHT22;20119;48.334;16.206;2023-02-01T05:11:59;4.60;99.90
33811;DHT22;20119;48.334;16.206;2023-02-01T05:14:43;4.70;99.90
33811;DHT22;20119;48.334;16.206;2023-02-01T05:17:10;4.70;99.90
33811;DHT22;20119;48.334;16.206;2023-02-01T05:19:37;4.70;99.90
33811;DHT22;20119;48.334;16.206;2023-02-01T05:22:04;4.70;99.90
33811;DHT22;20119;48.334;16.206;2023-02-01T05:24:31;4.70;99.90
33811;DHT22;20119;48.334;16.206;2023-02-01T05:29:36;4.70;99.90
33811;DHT22;20119;48.334;16.206;2023-02-01T05:35:00;4.70;99.90
33811;DHT22;20119;48.334;16.206;2023-02-01T05:37:27;4.70;99.90
33811;DHT22;20119;48.334;16.206;2023-02-01T05:39:53;4.70;99.90
33811;DHT22;20119;48.334;16.206;2023-02-01T05:42:21;4.70;99.90
33811;DHT22;20119;48.334;16.206;2023-02-01T05:47:19;4.80;99.90
33811;DHT22;20119;48.334;16.206;2023-02-01T05:52:22;4.70;99.90
33811;DHT22;20119;48.334;16.206;2023-02-01T05:54:49;4.70;99.90
33811;DHT22;20119;48.334;16.206;2023-02-01T05:57:16;4.70;99.90
33811;DHT22;20119;48.334;16.206;2023-02-01T05:59:43;4.70;99.90
33811;DHT22;20119;48.334;16.206;2023-02-01T06:02:11;4.70;99.90
33811;DHT22;20119;48.334;16.206;2023-02-01T06:07:10;4.70;99.90
33811;DHT22;20119;48.334;16.206;2023-02-01T06:09:37;4.70;99.90
33811;DHT22;20119;48.334;16.206;2023-02-01T06:14:50;4.80;99.90
33811;DHT22;20119;48.334;16.206;2023-02-01T06:17:17;4.80;99.90
33811;DHT22;20119;48.334;16.206;2023-02-01T06:19:44;4.80;99.90
33811;DHT22;20119;48.334;16.206;2023-02-01T06:22:15;4.80;99.90
33811;DHT22;20119;48.334;16.206;2023-02-01T06:32:28;4.90;99.90
33811;DHT22;20119;48.334;16.206;2023-02-01T06:34:55;5.00;99.90
33811;DHT22;20119;48.334;16.206;2023-02-01T06:40:03;5.00;99.90
33811;DHT22;20119;48.334;16.206;2023-02-01T06:47:40;5.00;99.90
33811;DHT22;20119;48.334;16.206;2023-02-01T06:52:44;5.00;99.90
33811;DHT22;20119;48.334;16.206;2023-02-01T06:55:11;5.10;99.90
33811;DHT22;20119;48.334;16.206;2023-02-01T06:57:38;5.00;99.90
33811;DHT22;20119;48.334;16.206;2023-02-01T07:00:06;5.00;99.90
33811;DHT22;20119;48.334;16.206;2023-02-01T07:02:33;5.10;99.90
33811;DHT22;20119;48.334;16.206;2023-02-01T07:05:00;5.00;99.90
33811;DHT22;20119;48.334;16.206;2023-02-01T07:07:27;5.10;99.90
33811;DHT22;20119;48.334;16.206;2023-02-01T07:09:58;5.10;99.90
33811;DHT22;20119;48.334;16.206;2023-02-01T07:12:30;5.10;99.90
33811;DHT22;20119;48.334;16.206;2023-02-01T07:15:09;5.10;99.90
33811;DHT22;20119;48.334;16.206;2023-02-01T07:22:47;5.20;99.90
33811;DHT22;20119;48.334;16.206;2023-02-01T07:25:16;5.20;99.90
33811;DHT22;20119;48.334;16.206;2023-02-01T07:33:02;5.20;99.90
33811;DHT22;20119;48.334;16.206;2023-02-01T07:35:30;5.20;99.90
33811;DHT22;20119;48.334;16.206;2023-02-01T07:37:57;5.20;99.90
33811;DHT22;20119;48.334;16.206;2023-02-01T07:40:26;5.30;99.90
33811;DHT22;20119;48.334;16.206;2023-02-01T07:42:54;5.30;99.90
33811;DHT22;20119;48.334;16.206;2023-02-01T07:45:21;5.20;99.90
33811;DHT22;20119;48.334;16.206;2023-02-01T07:47:48;5.20;99.90
33811;DHT22;20119;48.334;16.206;2023-02-01T07:50:16;5.30;99.90
33811;DHT22;20119;48.334;16.206;2023-02-01T07:52:43;5.20;99.90
33811;DHT22;20119;48.334;16.206;2023-02-01T08:00:18;5.30;99.90
33811;DHT22;20119;48.334;16.206;2023-02-01T08:03:04;5.40;99.90
33811;DHT22;20119;48.334;16.206;2023-02-01T08:05:31;5.40;99.90
33811;DHT22;20119;48.334;16.206;2023-02-01T08:07:58;5.40;99.90
33811;DHT22;20119;48.334;16.206;2023-02-01T08:15:32;5.50;99.90
33811;DHT22;20119;48.334;16.206;2023-02-01T08:17:58;5.50;99.90
33811;DHT22;20119;48.334;16.206;2023-02-01T08:20:27;5.50;99.90
33811;DHT22;20119;48.334;16.206;2023-02-01T08:22:55;5.50;99.90
33811;DHT22;20119;48.334;16.206;2023-02-01T08:25:22;5.50;99.90
33811;DHT22;20119;48.334;16.206;2023-02-01T08:27:50;5.60;99.90
33811;DHT22;20119;48.334;16.206;2023-02-01T08:38:05;5.60;99.90
33811;DHT22;20119;48.334;16.206;2023-02-01T08:40:32;5.60;99.90
33811;DHT22;20119;48.334;16.206;2023-02-01T08:42:59;5.70;99.90
33811;DHT22;20119;48.334;16.206;2023-02-01T08:48:02;5.70;99.90
33811;DHT22;20119;48.334;16.206;2023-02-01T08:50:28;5.80;99.90
33811;DHT22;20119;48.334;16.206;2023-02-01T08:58:07;5.80;99.90
33811;DHT22;20119;48.334;16.206;2023-02-01T09:00:34;5.80;99.90
33811;DHT22;20119;48.334;16.206;2023-02-01T09:05:37;5.90;99.90
33811;DHT22;20119;48.334;16.206;2023-02-01T09:08:04;5.90;99.90
33811;DHT22;20119;48.334;16.206;2023-02-01T09:10:31;5.90;99.90
33811;DHT22;20119;48.334;16.206;2023-02-01T09:12:58;5.70;99.90
33811;DHT22;20119;48.334;16.206;2023-02-01T09:15:27;5.70;99.90
33811;DHT22;20119;48.334;16.206;2023-02-01T09:17:53;5.70;99.90
33811;DHT22;20119;48.334;16.206;2023-02-01T09:20:20;5.70;99.90
33811;DHT22;20119;48.334;16.206;2023-02-01T09:22:50;5.70;99.90
33811;DHT22;20119;48.334;16.206;2023-02-01T09:27:52;5.70;99.90
33811;DHT22;20119;48.334;16.206;2023-02-01T09:30:19;5.70;99.90
33811;DHT22;20119;48.334;16.206;2023-02-01T09:32:47;5.70;99.90
33811;DHT22;20119;48.334;16.206;2023-02-01T09:40:25;5.70;99.90
33811;DHT22;20119;48.334;16.206;2023-02-01T09:43:07;5.70;99.90
33811;DHT22;20119;48.334;16.206;2023-02-01T09:50:50;5.70;99.90
33811;DHT22;20119;48.334;16.206;2023-02-01T09:55:48;5.80;99.90
33811;DHT22;20119;48.334;16.206;2023-02-01T09:58:21;5.80;99.90
33811;DHT22;20119;48.334;16.206;2023-02-01T10:00:52;5.90;99.90
33811;DHT22;20119;48.334;16.206;2023-02-01T10:06:02;6.00;99.90
33811;DHT22;20119;48.334;16.206;2023-02-01T10:08:37;6.00;99.90
33811;DHT22;20119;48.334;16.206;2023-02-01T10:11:17;6.10;99.90
33811;DHT22;20119;48.334;16.206;2023-02-01T10:13:54;6.20;99.90
33811;DHT22;20119;48.334;16.206;2023-02-01T10:16:29;6.20;99.90
33811;DHT22;20119;48.334;16.206;2023-02-01T10:24:37;6.30;99.90
33811;DHT22;20119;48.334;16.206;2023-02-01T10:27:13;6.30;99.90
33811;DHT22;20119;48.334;16.206;2023-02-01T10:29:41;6.30;99.90
33811;DHT22;20119;48.334;16.206;2023-02-01T10:32:14;6.30;99.90
33811;DHT22;20119;48.334;16.206;2023-02-01T10:34:42;6.30;99.90
33811;DHT22;20119;48.334;16.206;2023-02-01T10:37:17;6.20;99.90
33811;DHT22;20119;48.334;16.206;2023-02-01T10:39:49;6.20;99.90
33811;DHT22;20119;48.334;16.206;2023-02-01T10:47:27;6.20;99.90
33811;DHT22;20119;48.334;16.206;2023-02-01T10:50:01;6.20;99.90
33811;DHT22;20119;48.334;16.206;2023-02-01T10:58:19;6.10;99.90
33811;DHT22;20119;48.334;16.206;2023-02-01T11:00:48;6.10;99.90
33811;DHT22;20119;48.334;16.206;2023-02-01T11:03:38;6.00;99.90
33811;DHT22;20119;48.334;16.206;2023-02-01T11:06:19;5.90;99.90
33811;DHT22;20119;48.334;16.206;2023-02-01T11:11:24;5.80;99.90
33811;DHT22;20119;48.334;16.206;2023-02-01T11:13:55;5.90;99.90
33811;DHT22;20119;48.334;16.206;2023-02-01T11:16:29;6.00;99.90
33811;DHT22;20119;48.334;16.206;2023-02-01T11:24:18;5.70;99.90
33811;DHT22;20119;48.334;16.206;2023-02-01T11:26:48;5.70;99.90
33811;DHT22;20119;48.334;16.206;2023-02-01T11:29:20;5.70;99.90
33811;DHT22;20119;48.334;16.206;2023-02-01T11:34:38;5.60;99.90
33811;DHT22;20119;48.334;16.206;2023-02-01T11:37:17;5.50;99.90
33811;DHT22;20119;48.334;16.206;2023-02-01T11:39:54;5.50;99.90
33811;DHT22;20119;48.334;16.206;2023-02-01T11:42:21;5.30;99.90
33811;DHT22;20119;48.334;16.206;2023-02-01T11:44:49;5.30;99.90
33811;DHT22;20119;48.334;16.206;2023-02-01T11:47:22;5.20;99.90
33811;DHT22;20119;48.334;16.206;2023-02-01T11:49:51;5.20;99.90
33811;DHT22;20119;48.334;16.206;2023-02-01T11:52:35;5.10;99.90
33811;DHT22;20119;48.334;16.206;2023-02-01T11:55:29;5.20;99.90
33811;DHT22;20119;48.334;16.206;2023-02-01T11:58:06;5.10;99.90
33811;DHT22;20119;48.334;16.206;2023-02-01T12:00:56;5.10;99.90
33811;DHT22;20119;48.334;16.206;2023-02-01T12:03:43;5.10;99.90
33811;DHT22;20119;48.334;16.206;2023-02-01T12:06:24;5.10;99.90
33811;DHT22;20119;48.334;16.206;2023-02-01T12:09:08;5.20;99.90
33811;DHT22;20119;48.334;16.206;2023-02-01T12:11:50;5.20;99.90
33811;DHT22;20119;48.334;16.206;2023-02-01T12:14:38;5.30;99.90
33811;DHT22;20119;48.334;16.206;2023-02-01T12:17:33;5.50;99.90
33811;DHT22;20119;48.334;16.206;2023-02-01T12:22:41;5.90;99.90
33811;DHT22;20119;48.334;16.206;2023-02-01T12:25:24;6.30;99.90
33811;DHT22;20119;48.334;16.206;2023-02-01T12:28:21;6.40;99.90
33811;DHT22;20119;48.334;16.206;2023-02-01T12:31:12;6.40;99.90
33811;DHT22;20119;48.334;16.206;2023-02-01T12:33:56;6.40;99.90
33811;DHT22;20119;48.334;16.206;2023-02-01T12:39:09;6.30;99.90
33811;DHT22;20119;48.334;16.206;2023-02-01T12:41:49;6.30;99.90
33811;DHT22;20119;48.334;16.206;2023-02-01T12:44:27;6.40;99.90
33811;DHT22;20119;48.334;16.206;2023-02-01T12:46:59;6.50;99.90
33811;DHT22;20119;48.334;16.206;2023-02-01T12:49:38;6.70;99.90
33811;DHT22;20119;48.334;16.206;2023-02-01T12:52:10;6.90;99.90
33811;DHT22;20119;48.334;16.206;2023-02-01T12:57:15;7.10;99.90
33811;DHT22;20119;48.334;16.206;2023-02-01T12:59:48;7.20;99.90
33811;DHT22;20119;48.334;16.206;2023-02-01T13:02:22;7.30;99.90
33811;DHT22;20119;48.334;16.206;2023-02-01T13:04:58;7.30;99.90
33811;DHT22;20119;48.334;16.206;2023-02-01T13:07:32;7.20;99.90
33811;DHT22;20119;48.334;16.206;2023-02-01T13:10:05;7.10;99.90
33811;DHT22;20119;48.334;16.206;2023-02-01T13:12:38;7.00;99.90
33811;DHT22;20119;48.334;16.206;2023-02-01T13:15:13;7.00;99.90
33811;DHT22;20119;48.334;16.206;2023-02-01T13:17:41;7.00;99.90
33811;DHT22;20119;48.334;16.206;2023-02-01T13:20:18;7.00;99.90
33811;DHT22;20119;48.334;16.206;2023-02-01T13:22:49;6.90;99.90
33811;DHT22;20119;48.334;16.206;2023-02-01T13:25:22;7.00;99.90
33811;DHT22;20119;48.334;16.206;2023-02-01T13:27:53;6.90;99.90
33811;DHT22;20119;48.334;16.206;2023-02-01T13:33:28;7.10;99.90
33811;DHT22;20119;48.334;16.206;2023-02-01T13:36:17;7.20;99.90
33811;DHT22;20119;48.334;16.206;2023-02-01T13:41:53;7.40;99.90
33811;DHT22;20119;48.334;16.206;2023-02-01T13:44:26;7.40;99.90
33811;DHT22;20119;48.334;16.206;2023-02-01T13:46:56;7.50;99.90
33811;DHT22;20119;48.334;16.206;2023-02-01T13:49:26;7.40;99.90
33811;DHT22;20119;48.334;16.206;2023-02-01T13:52:26;7.40;99.90
33811;DHT22;20119;48.334;16.206;2023-02-01T13:55:16;7.40;99.90
33811;DHT22;20119;48.334;16.206;2023-02-01T13:57:51;7.40;99.90
33811;DHT22;20119;48.334;16.206;2023-02-01T14:03:13;7.40;99.90
33811;DHT22;20119;48.334;16.206;2023-02-01T14:09:14;7.40;99.90
33811;DHT22;20119;48.334;16.206;2023-02-01T14:11:44;7.40;99.90
33811;DHT22;20119;48.334;16.206;2023-02-01T14:14:48;7.20;99.90
33811;DHT22;20119;48.334;16.206;2023-02-01T14:17:39;7.10;99.90
33811;DHT22;20119;48.334;16.206;2023-02-01T14:23:24;6.90;99.90
33811;DHT22;20119;48.334;16.206;2023-02-01T14:26:09;6.70;99.90
33811;DHT22;20119;48.334;16.206;2023-02-01T14:31:39;6.60;99.90
33811;DHT22;20119;48.334;16.206;2023-02-01T14:39:30;6.30;99.90
33811;DHT22;20119;48.334;16.206;2023-02-01T14:42:02;6.30;99.90
33811;DHT22;20119;48.334;16.206;2023-02-01T14:44:35;6.30;99.90
33811;DHT22;20119;48.334;16.206;2023-02-01T14:47:04;6.30;99.90
33811;DHT22;20119;48.334;16.206;2023-02-01T14:57:20;6.10;99.90
33811;DHT22;20119;48.334;16.206;2023-02-01T14:59:49;6.00;99.90
33811;DHT22;20119;48.334;16.206;2023-02-01T15:04:56;5.90;99.90
33811;DHT22;20119;48.334;16.206;2023-02-01T15:07:24;5.80;99.90
33811;DHT22;20119;48.334;16.206;2023-02-01T15:12:24;5.70;99.90
33811;DHT22;20119;48.334;16.206;2023-02-01T15:15:14;5.60;99.90
33811;DHT22;20119;48.334;16.206;2023-02-01T15:22:55;5.30;99.90
33811;DHT22;20119;48.334;16.206;2023-02-01T15:25:25;5.20;99.90
33811;DHT22;20119;48.334;16.206;2023-02-01T15:27:53;5.20;99.90
33811;DHT22;20119;48.334;16.206;2023-02-01T15:33:06;5.10;99.90
33811;DHT22;20119;48.334;16.206;2023-02-01T15:35:36;5.10;99.90
33811;DHT22;20119;48.334;16.206;2023-02-01T15:38:34;5.10;99.90
33811;DHT22;20119;48.334;16.206;2023-02-01T15:41:04;5.10;99.90
33811;DHT22;20119;48.334;16.206;2023-02-01T15:43:35;5.00;99.90
33811;DHT22;20119;48.334;16.206;2023-02-01T15:46:07;4.90;99.90
33811;DHT22;20119;48.334;16.206;2023-02-01T15:53:48;4.80;99.90
33811;DHT22;20119;48.334;16.206;2023-02-01T15:58:56;4.80;99.90
33811;DHT22;20119;48.334;16.206;2023-02-01T16:01:24;4.80;99.90
33811;DHT22;20119;48.334;16.206;2023-02-01T16:04:03;4.80;99.90
33811;DHT22;20119;48.334;16.206;2023-02-01T16:06:31;4.80;99.90
33811;DHT22;20119;48.334;16.206;2023-02-01T16:09:09;4.80;99.90
33811;DHT22;20119;48.334;16.206;2023-02-01T16:11:46;4.80;99.90
33811;DHT22;20119;48.334;16.206;2023-02-01T16:14:14;4.80;99.90
33811;DHT22;20119;48.334;16.206;2023-02-01T16:16:42;4.80;99.90
33811;DHT22;20119;48.334;16.206;2023-02-01T16:19:09;4.90;99.90
33811;DHT22;20119;48.334;16.206;2023-02-01T16:24:11;5.00;99.90
33811;DHT22;20119;48.334;16.206;2023-02-01T16:26:38;5.10;99.90
33811;DHT22;20119;48.334;16.206;2023-02-01T16:29:05;5.20;99.90
33811;DHT22;20119;48.334;16.206;2023-02-01T16:34:03;5.30;99.90
33811;DHT22;20119;48.334;16.206;2023-02-01T16:36:30;5.30;99.90
33811;DHT22;20119;48.334;16.206;2023-02-01T16:41:33;5.20;99.90
33811;DHT22;20119;48.334;16.206;2023-02-01T16:43:59;5.20;99.90
33811;DHT22;20119;48.334;16.206;2023-02-01T16:46:28;5.20;99.90
33811;DHT22;20119;48.334;16.206;2023-02-01T16:49:01;5.10;99.90
33811;DHT22;20119;48.334;16.206;2023-02-01T16:56:40;5.00;99.90
33811;DHT22;20119;48.334;16.206;2023-02-01T16:59:08;5.00;99.90
33811;DHT22;20119;48.334;16.206;2023-02-01T17:01:35;4.90;99.90
33811;DHT22;20119;48.334;16.206;2023-02-01T17:04:04;4.90;99.90
33811;DHT22;20119;48.334;16.206;2023-02-01T17:06:32;4.90;99.90
33811;DHT22;20119;48.334;16.206;2023-02-01T17:08:59;5.00;99.90
33811;DHT22;20119;48.334;16.206;2023-02-01T17:11:27;5.00;99.90
33811;DHT22;20119;48.334;16.206;2023-02-01T17:13:56;4.90;99.90
33811;DHT22;20119;48.334;16.206;2023-02-01T17:16:26;5.00;99.90
33811;DHT22;20119;48.334;16.206;2023-02-01T17:18:56;5.00;99.90
33811;DHT22;20119;48.334;16.206;2023-02-01T17:21:25;5.00;99.90
33811;DHT22;20119;48.334;16.206;2023-02-01T17:23:53;5.00;99.90
33811;DHT22;20119;48.334;16.206;2023-02-01T17:26:23;4.90;99.90
33811;DHT22;20119;48.334;16.206;2023-02-01T17:31:25;5.00;99.90
33811;DHT22;20119;48.334;16.206;2023-02-01T17:36:20;5.00;99.90
33811;DHT22;20119;48.334;16.206;2023-02-01T17:43:59;5.00;99.90
33811;DHT22;20119;48.334;16.206;2023-02-01T17:46:26;5.00;99.90
33811;DHT22;20119;48.334;16.206;2023-02-01T17:48:53;5.00;99.90
33811;DHT22;20119;48.334;16.206;2023-02-01T17:54:13;5.00;99.90
33811;DHT22;20119;48.334;16.206;2023-02-01T17:56:41;5.00;99.90
33811;DHT22;20119;48.334;16.206;2023-02-01T17:59:11;5.00;99.90
33811;DHT22;20119;48.334;16.206;2023-02-01T18:01:39;5.00;99.90
33811;DHT22;20119;48.334;16.206;2023-02-01T18:04:10;5.10;99.90
33811;DHT22;20119;48.334;16.206;2023-02-01T18:09:13;5.10;99.90
33811;DHT22;20119;48.334;16.206;2023-02-01T18:14:17;5.10;99.90
33811;DHT22;20119;48.334;16.206;2023-02-01T18:16:44;5.10;99.90
33811;DHT22;20119;48.334;16.206;2023-02-01T18:19:11;5.10;99.90
33811;DHT22;20119;48.334;16.206;2023-02-01T18:21:40;5.10;99.90
33811;DHT22;20119;48.334;16.206;2023-02-01T18:24:11;5.10;99.90
33811;DHT22;20119;48.334;16.206;2023-02-01T18:26:39;5.10;99.90
33811;DHT22;20119;48.334;16.206;2023-02-01T18:29:06;5.10;99.90
33811;DHT22;20119;48.334;16.206;2023-02-01T18:31:36;5.10;99.90
33811;DHT22;20119;48.334;16.206;2023-02-01T18:34:07;5.00;99.90
33811;DHT22;20119;48.334;16.206;2023-02-01T18:36:35;5.00;99.90
33811;DHT22;20119;48.334;16.206;2023-02-01T18:39:02;4.90;99.90
33811;DHT22;20119;48.334;16.206;2023-02-01T18:41:29;4.90;99.90
33811;DHT22;20119;48.334;16.206;2023-02-01T18:43:56;4.80;99.90
33811;DHT22;20119;48.334;16.206;2023-02-01T18:46:23;4.80;99.90
33811;DHT22;20119;48.334;16.206;2023-02-01T18:48:51;4.80;99.90
33811;DHT22;20119;48.334;16.206;2023-02-01T18:53:54;4.80;99.90
33811;DHT22;20119;48.334;16.206;2023-02-01T18:58:56;4.80;99.90
33811;DHT22;20119;48.334;16.206;2023-02-01T19:01:24;4.80;99.90
33811;DHT22;20119;48.334;16.206;2023-02-01T19:03:53;4.80;99.90
33811;DHT22;20119;48.334;16.206;2023-02-01T19:06:20;4.90;99.90
33811;DHT22;20119;48.334;16.206;2023-02-01T19:08:47;5.00;99.90
33811;DHT22;20119;48.334;16.206;2023-02-01T19:11:15;5.00;99.90
33811;DHT22;20119;48.334;16.206;2023-02-01T19:13:42;5.10;99.90
33811;DHT22;20119;48.334;16.206;2023-02-01T19:18:49;5.00;99.90
33811;DHT22;20119;48.334;16.206;2023-02-01T19:21:20;5.00;99.90
33811;DHT22;20119;48.334;16.206;2023-02-01T19:26:39;5.00;99.90
33811;DHT22;20119;48.334;16.206;2023-02-01T19:29:06;5.00;99.90
33811;DHT22;20119;48.334;16.206;2023-02-01T19:31:33;5.00;99.90
33811;DHT22;20119;48.334;16.206;2023-02-01T19:34:00;5.00;99.90
33811;DHT22;20119;48.334;16.206;2023-02-01T19:36:29;4.90;99.90
33811;DHT22;20119;48.334;16.206;2023-02-01T19:38:55;4.90;99.90
33811;DHT22;20119;48.334;16.206;2023-02-01T19:41:22;4.90;99.90
33811;DHT22;20119;48.334;16.206;2023-02-01T19:43:49;4.90;99.90
33811;DHT22;20119;48.334;16.206;2023-02-01T19:48:51;4.90;99.90
33811;DHT22;20119;48.334;16.206;2023-02-01T19:51:18;4.90;99.90
33811;DHT22;20119;48.334;16.206;2023-02-01T19:53:47;4.90;99.90
33811;DHT22;20119;48.334;16.206;2023-02-01T19:56:14;4.90;99.90
33811;DHT22;20119;48.334;16.206;2023-02-01T20:01:16;4.90;99.90
33811;DHT22;20119;48.334;16.206;2023-02-01T20:03:44;4.90;99.90
33811;DHT22;20119;48.334;16.206;2023-02-01T20:06:11;4.90;99.90
33811;DHT22;20119;48.334;16.206;2023-02-01T20:11:15;5.00;99.90
33811;DHT22;20119;48.334;16.206;2023-02-01T20:13:42;5.10;99.90
33811;DHT22;20119;48.334;16.206;2023-02-01T20:16:09;5.10;99.90
33811;DHT22;20119;48.334;16.206;2023-02-01T20:18:36;5.20;99.90
33811;DHT22;20119;48.334;16.206;2023-02-01T20:21:04;5.10;99.90
33811;DHT22;20119;48.334;16.206;2023-02-01T20:23:31;5.20;99.90
33811;DHT22;20119;48.334;16.206;2023-02-01T20:26:00;5.20;99.90
33811;DHT22;20119;48.334;16.206;2023-02-01T20:28:29;5.10;99.90
33811;DHT22;20119;48.334;16.206;2023-02-01T20:30:57;5.10;99.90
33811;DHT22;20119;48.334;16.206;2023-02-01T20:33:24;5.10;99.90
33811;DHT22;20119;48.334;16.206;2023-02-01T20:35:52;5.10;99.90
33811;DHT22;20119;48.334;16.206;2023-02-01T20:38:19;5.10;99.90
33811;DHT22;20119;48.334;16.206;2023-02-01T20:43:21;5.00;99.90
33811;DHT22;20119;48.334;16.206;2023-02-01T20:45:49;5.00;99.90
33811;DHT22;20119;48.334;16.206;2023-02-01T20:48:16;5.00;99.90
33811;DHT22;20119;48.334;16.206;2023-02-01T20:50:43;5.00;99.90
33811;DHT22;20119;48.334;16.206;2023-02-01T20:53:10;5.00;99.90
33811;DHT22;20119;48.334;16.206;2023-02-01T20:55:37;5.00;99.90
33811;DHT22;20119;48.334;16.206;2023-02-01T20:58:04;5.00;99.90
33811;DHT22;20119;48.334;16.206;2023-02-01T21:00:31;5.00;99.90
33811;DHT22;20119;48.334;16.206;2023-02-01T21:05:37;5.00;99.90
33811;DHT22;20119;48.334;16.206;2023-02-01T21:08:07;5.00;99.90
33811;DHT22;20119;48.334;16.206;2023-02-01T21:10:34;5.10;99.90
33811;DHT22;20119;48.334;16.206;2023-02-01T21:13:02;5.10;99.90
33811;DHT22;20119;48.334;16.206;2023-02-01T21:15:29;5.10;99.90
33811;DHT22;20119;48.334;16.206;2023-02-01T21:20:33;5.10;99.90
33811;DHT22;20119;48.334;16.206;2023-02-01T21:25:39;5.20;99.90
33811;DHT22;20119;48.334;16.206;2023-02-01T21:28:06;5.20;99.90
33811;DHT22;20119;48.334;16.206;2023-02-01T21:35:39;5.20;99.90
33811;DHT22;20119;48.334;16.206;2023-02-01T21:38:06;5.20;99.90
33811;DHT22;20119;48.334;16.206;2023-02-01T21:40:35;5.20;99.90
33811;DHT22;20119;48.334;16.206;2023-02-01T21:45:39;5.20;99.90
33811;DHT22;20119;48.334;16.206;2023-02-01T21:50:41;5.20;99.90
33811;DHT22;20119;48.334;16.206;2023-02-01T21:53:08;5.20;99.90
33811;DHT22;20119;48.334;16.206;2023-02-01T21:55:35;5.20;99.90
33811;DHT22;20119;48.334;16.206;2023-02-01T21:58:02;5.20;99.90
33811;DHT22;20119;48.334;16.206;2023-02-01T22:00:36;5.20;99.90
33811;DHT22;20119;48.334;16.206;2023-02-01T22:08:23;5.30;99.90
33811;DHT22;20119;48.334;16.206;2023-02-01T22:10:50;5.30;99.90
33811;DHT22;20119;48.334;16.206;2023-02-01T22:13:17;5.30;99.90
33811;DHT22;20119;48.334;16.206;2023-02-01T22:18:19;5.30;99.90
33811;DHT22;20119;48.334;16.206;2023-02-01T22:20:46;5.30;99.90
33811;DHT22;20119;48.334;16.206;2023-02-01T22:23:14;5.30;99.90
33811;DHT22;20119;48.334;16.206;2023-02-01T22:25:43;5.30;99.90